Latest Weather Observations for Kingscote

IDS60801

Issued at 7:31 am CST Monday 25 July 2016 (issued every 30 minutes, with the page automatically refreshed every 10 minutes)

About weather observations | Map of weather stations | Latest weather observations for SA | Other Formats
Station Details ID: 022841 Name: KINGSCOTE AERO Lat: -35.71 Lon: 137.52 Height: 6.23 m
Data from the previous 72 hours. | See also: Recent months at Kingscote
Date/Time
CST
Temp
°C
App
Temp
°C
Dew
Point
°C
Rel
Hum
%
Delta-T
°C
Wind Press
QNH
hPa
Press
MSL
hPa
Rain since
9am
mm
Dir  Spd
km/h
Gust
km/h
Spd
kts
Gust
kts
25/07:30am 10.0 6.1 7.1 82 1.4 NW 17 20 9 11 1012.6 1012.6 9.0
25/07:00am 9.4 6.0 7.5 88 0.9 WNW 15 20 8 11 1012.5 1012.5 9.0
25/06:30am 8.6 5.5 7.4 92 0.6 WNW 13 15 7 8 1012.6 1012.6 9.0
25/06:00am 8.2 5.4 7.1 93 0.5 WNW 11 13 6 7 1013.0 1013.0 9.0
25/05:30am 7.8 4.5 6.4 91 0.6 NW 13 15 7 8 1013.2 1013.2 9.0
25/05:00am 7.2 3.8 5.8 91 0.6 NW 13 15 7 8 1013.2 1013.2 8.8
25/04:30am 7.4 4.4 6.0 91 0.6 NNW 11 15 6 8 1013.3 1013.3 8.8
25/04:00am 6.9 3.8 5.4 90 0.7 NW 11 15 6 8 1013.4 1013.4 8.8
25/03:30am 6.5 3.3 5.1 91 0.6 WNW 11 13 6 7 1013.4 1013.4 8.8
25/03:00am 6.7 3.4 4.7 87 0.9 W 11 13 6 7 1013.6 1013.6 8.8
25/02:30am 8.3 3.8 5.9 85 1.1 W 19 24 10 13 1013.7 1013.7 8.8
25/02:00am 7.1 3.1 5.1 87 0.9 WNW 15 19 8 10 1013.8 1013.8 8.8
25/01:30am 6.4 2.7 4.4 87 0.9 NW 13 15 7 8 1013.7 1013.7 8.8
25/01:00am 7.5 3.1 5.0 84 1.1 WNW 17 20 9 11 1013.7 1013.7 8.8
25/12:30am 8.0 3.3 5.3 83 1.2 W 19 28 10 15 1013.5 1013.5 8.8
25/12:00am 7.6 3.8 5.7 88 0.9 W 15 19 8 10 1013.3 1013.3 8.8
 
Date/Time
CST
Temp
°C
App
Temp
°C
Dew
Point
°C
Rel
Hum
%
Delta-T
°C
Wind Press
QNH
hPa
Press
MSL
hPa
Rain since
9am
mm
Dir  Spd
km/h
Gust
km/h
Spd
kts
Gust
kts
24/11:30pm 7.8 3.7 6.1 89 0.8 W 17 20 9 11 1013.2 1013.2 8.8
24/11:00pm 8.3 3.7 6.6 89 0.8 WSW 20 30 11 16 1012.9 1012.9 8.8
24/10:30pm 7.9 3.8 6.2 89 0.8 WNW 17 22 9 12 1012.3 1012.3 8.8
24/10:00pm 8.7 3.0 6.7 87 0.9 W 26 43 14 23 1011.8 1011.8 8.8
24/09:42pm 8.8 4.6 7.3 90 0.7 W 19 39 10 21 1012.0 1012.0 8.4
24/09:30pm 8.3 4.7 6.6 89 0.8 W 15 19 8 10 1011.7 1011.7 8.4
24/09:00pm 8.7 4.2 6.8 88 0.9 W 20 26 11 14 1011.4 1011.4 8.4
24/08:30pm 9.2 2.9 7.3 88 0.9 WSW 30 46 16 25 1011.1 1011.1 8.0
24/08:14pm 9.6 3.6 7.2 85 1.1 WSW 28 46 15 25 1010.7 1010.7 7.6
24/08:00pm 9.3 3.7 7.3 87 0.9 W 26 39 14 21 1010.3 1010.3 7.6
24/07:30pm 9.3 2.5 7.6 89 0.8 W 33 48 18 26 1009.8 1009.8 7.4
24/07:09pm 9.8 3.5 7.6 86 1.0 W 30 48 16 26 1009.5 1009.5 7.2
24/07:00pm 9.8 3.2 7.6 86 1.0 W 32 48 17 26 1009.1 1009.1 7.0
24/06:30pm 9.8 3.4 8.4 91 0.7 W 32 43 17 23 1008.3 1008.3 7.0
24/06:00pm 10.1 3.0 8.0 87 1.0 W 35 56 19 30 1007.5 1007.5 6.6
24/05:30pm 9.9 2.9 8.3 90 0.8 W 35 56 19 30 1006.9 1006.9 6.4
24/05:02pm 10.6 2.7 7.7 82 1.4 W 39 57 21 31 1005.9 1005.9 5.8
24/05:00pm 10.6 3.4 7.7 82 1.4 W 35 48 19 26 1005.9 1005.9 5.8
24/04:35pm 10.8 2.8 7.5 80 1.6 W 39 63 21 34 1005.4 1005.4 5.8
24/04:30pm 10.5 2.4 7.2 80 1.6 W 39 50 21 27 1005.4 1005.4 5.8
24/04:07pm 10.4 3.2 7.8 84 1.3 W 35 54 19 29 1005.1 1005.1 5.8
24/04:02pm 10.0 2.5 8.1 88 0.9 W 37 50 20 27 1004.9 1004.9 5.8
24/04:00pm 10.0 2.2 8.3 89 0.8 W 39 56 21 30 1004.9 1004.9 5.8
24/03:45pm 10.1 2.7 8.2 88 0.9 W 37 61 20 33 1005.0 1005.0 5.6
24/03:33pm 10.0 3.5 8.1 88 0.9 W 32 57 17 31 1004.8 1004.8 4.6
24/03:30pm 10.0 3.5 8.1 88 0.9 W 32 43 17 23 1004.8 1004.8 4.2
24/03:25pm 10.1 3.6 8.2 88 0.9 W 32 43 17 23 1004.9 1004.9 4.0
24/03:05pm 9.8 1.9 7.9 88 0.9 W 39 57 21 31 1004.9 1004.9 3.4
24/03:00pm 10.0 2.1 7.8 86 1.1 W 39 57 21 31 1004.8 1004.8 2.8
24/02:40pm 10.4 4.1 7.5 82 1.4 WNW 30 50 16 27 1004.9 1004.9 2.4
24/02:30pm 10.8 4.4 7.1 78 1.8 WNW 30 41 16 22 1004.6 1004.6 2.0
24/02:00pm 10.2 2.5 6.9 80 1.6 W 37 56 20 30 1005.3 1005.3 1.6
24/01:33pm 12.1 5.9 6.2 67 2.8 W 28 56 15 30 1005.0 1005.0 1.4
24/01:30pm 11.8 6.2 5.4 65 3.0 W 24 37 13 20 1004.9 1004.9 1.4
24/01:15pm 11.7 4.3 6.6 71 2.4 W 35 57 19 31 1005.0 1005.0 1.4
24/01:12pm 12.0 4.2 6.7 70 2.5 W 37 57 20 31 1005.1 1005.1 1.4
24/01:07pm 12.5 4.9 5.7 63 3.2 W 35 57 19 31 1005.0 1005.0 1.4
24/01:00pm 12.9 5.3 5.6 61 3.4 W 35 46 19 25 1005.2 1005.2 1.4
24/12:30pm 12.2 4.1 5.4 63 3.2 W 37 59 20 32 1005.6 1005.6 1.4
24/12:17pm 11.9 4.1 4.9 62 3.2 W 35 59 19 32 1005.5 1005.5 1.4
24/12:00pm 12.0 5.2 5.2 63 3.1 W 30 46 16 25 1005.6 1005.6 1.4
24/11:41am 11.5 5.1 5.2 65 2.9 WNW 28 50 15 27 1005.7 1005.7 1.4
24/11:30am 11.7 6.0 6.6 71 2.4 W 26 39 14 21 1005.7 1005.7 1.4
24/11:00am 9.9 4.4 6.1 77 1.8 W 24 33 13 18 1005.8 1005.8 1.4
24/10:30am 8.7 2.5 6.0 83 1.2 W 28 44 15 24 1005.9 1005.9 1.4
24/10:27am 8.7 2.5 6.0 83 1.2 W 28 44 15 24 1005.8 1005.8 1.4
24/10:00am 8.1 4.0 6.2 88 0.9 WNW 17 26 9 14 1005.3 1005.3 1.4
24/09:55am 8.1 4.0 6.4 89 0.8 WNW 17 26 9 14 1005.4 1005.4 1.4
24/09:37am 8.0 3.2 5.8 86 1.0 W 20 57 11 31 1005.8 1005.8 0.8
24/09:36am 8.3 3.8 6.3 87 0.9 WNW 19 57 10 31 1005.7 1005.7 0.8
24/09:30am 8.9 6.2 7.5 91 0.7 NW 11 15 6 8 1005.1 1005.1 0.0
24/09:00am 7.9 4.6 6.4 90 0.7 NW 13 17 7 9 1005.0 1005.0 12.6
24/08:30am 7.6 2.5 5.9 89 0.8 W 22 32 12 17 1005.3 1005.3 12.4
24/08:10am 8.5 2.6 7.3 92 0.6 W 28 41 15 22 1005.4 1005.4 11.8
24/08:00am 8.6 1.9 7.5 93 0.5 WNW 32 44 17 24 1004.9 1004.9 11.4
24/07:50am 8.3 0.2 6.8 90 0.7 WNW 39 57 21 31 1004.9 1004.9 10.6
24/07:45am 8.8 0.9 6.4 85 1.1 NW 37 57 20 31 1005.0 1005.0 9.8
24/07:42am 10.2 2.9 7.4 83 1.3 NNW 35 57 19 31 1004.9 1004.9 9.2
24/07:34am 11.3 4.0 8.9 85 1.2 NNW 37 57 20 31 1004.1 1004.1 9.0
24/07:30am 11.1 4.2 8.8 86 1.1 NNW 35 52 19 28 1004.0 1004.0 9.0
24/07:04am 10.6 4.2 9.2 91 0.7 NNW 33 56 18 30 1003.9 1003.9 9.0
24/07:00am 10.6 4.3 9.0 90 0.8 NNW 32 48 17 26 1004.0 1004.0 9.0
24/06:47am 10.8 4.6 9.2 90 0.8 NNW 32 50 17 27 1004.2 1004.2 8.8
24/06:30am 10.6 5.2 9.4 92 0.6 NNW 28 44 15 24 1004.4 1004.4 8.6
24/06:07am 10.9 5.0 9.0 88 0.9 NNW 30 48 16 26 1004.9 1004.9 8.2
24/06:00am 10.9 5.0 9.2 89 0.9 NNW 30 44 16 24 1005.0 1005.0 8.2
24/05:46am 10.7 4.8 9.1 90 0.8 NNW 30 46 16 25 1005.3 1005.3 8.2
24/05:30am 10.5 4.6 9.1 91 0.7 NNW 30 46 16 25 1005.5 1005.5 8.2
24/05:17am 10.4 4.9 9.2 92 0.6 NNW 28 52 15 28 1005.5 1005.5 8.2
24/05:04am 10.0 5.2 8.9 93 0.5 N 24 35 13 19 1005.7 1005.7 8.0
24/05:00am 9.9 5.1 8.7 92 0.6 N 24 35 13 19 1005.9 1005.9 8.0
24/04:30am 9.9 5.8 8.5 91 0.7 N 20 39 11 21 1006.9 1006.9 7.8
24/04:00am 10.4 6.4 8.3 87 1.0 N 19 26 10 14 1007.6 1007.6 6.0
24/03:30am 10.8 5.9 7.1 78 1.8 NNW 22 35 12 19 1008.0 1008.0 5.8
24/03:00am 10.6 6.3 6.9 78 1.8 N 19 26 10 14 1008.6 1008.6 5.8
24/02:30am 10.2 6.3 7.1 81 1.5 NNW 17 24 9 13 1009.3 1009.3 5.8
24/02:00am 9.3 5.7 6.9 85 1.1 NNW 15 22 8 12 1009.9 1009.9 5.8
24/01:30am 8.7 5.6 7.2 90 0.7 N 13 20 7 11 1010.4 1010.4 5.8
24/01:00am 7.1 4.6 6.5 96 0.3 NE 9 11 5 6 1011.0 1011.0 5.8
24/12:30am 7.7 5.7 7.1 96 0.3 NW 7 9 4 5 1011.9 1011.9 5.8
24/12:00am 7.3 5.4 6.7 96 0.3 NW 6 7 3 4 1012.5 1012.5 5.0
 
Date/Time
CST
Temp
°C
App
Temp
°C
Dew
Point
°C
Rel
Hum
%
Delta-T
°C
Wind Press
QNH
hPa
Press
MSL
hPa
Rain since
9am
mm
Dir  Spd
km/h
Gust
km/h
Spd
kts
Gust
kts
23/11:41pm 7.0 5.0 6.4 96 0.3 NNW 6 11 3 6 1012.8 1012.8 4.6
23/11:30pm 6.9 4.9 6.3 96 0.3 N 6 9 3 5 1012.9 1012.9 4.6
23/11:16pm 6.5 4.2 5.9 96 0.3 S 7 9 4 5 1013.1 1013.1 3.2
23/11:10pm 6.5 4.8 5.9 96 0.3 SSW 4 9 2 5 1013.1 1013.1 3.0
23/11:00pm 6.3 4.9 5.6 95 0.3 SW 2 7 1 4 1013.4 1013.4 2.6
23/10:49pm 6.2 3.5 5.5 95 0.3 SW 9 15 5 8 1013.6 1013.6 1.8
23/10:30pm 6.1 5.1 5.4 95 0.3 CALM 0 0 0 0 1013.5 1013.5 1.2
23/10:00pm 6.2 4.0 5.3 94 0.4 N 6 15 3 8 1013.8 1013.8 1.2
23/09:30pm 5.6 4.4 4.4 92 0.5 CALM 0 0 0 0 1013.9 1013.9 1.2
23/09:00pm 6.5 5.4 5.1 91 0.6 CALM 0 0 0 0 1014.0 1014.0 1.2
23/08:30pm 7.0 6.1 5.9 93 0.5 CALM 0 0 0 0 1014.3 1014.3 1.2
23/08:00pm 6.6 4.4 5.2 91 0.6 SW 6 6 3 3 1014.5 1014.5 1.0
23/07:30pm 7.6 5.3 5.7 88 0.9 SSW 7 11 4 6 1014.5 1014.5 1.0
23/07:00pm 7.2 6.2 5.8 91 0.6 CALM 0 0 0 0 1014.5 1014.5 1.0
23/06:30pm 8.0 6.4 6.5 90 0.7 N 4 11 2 6 1014.2 1014.2 1.0
23/06:00pm 7.7 6.7 5.8 88 0.9 CALM 0 0 0 0 1014.1 1014.1 1.0
23/05:30pm 8.8 8.0 6.3 84 1.1 CALM 0 0 0 0 1014.1 1014.1 1.0
23/05:00pm 10.3 8.1 6.3 76 1.9 WSW 7 9 4 5 1014.1 1014.1 1.0
23/04:30pm 10.8 7.8 6.2 73 2.1 WSW 11 17 6 9 1014.0 1014.0 1.0
23/04:00pm 11.7 9.9 7.2 74 2.2 NW 6 9 3 5 1014.1 1014.1 1.0
23/03:30pm 10.7 7.9 7.0 78 1.8 WNW 11 13 6 7 1014.3 1014.3 1.0
23/03:00pm 10.8 7.2 6.7 76 1.9 WNW 15 20 8 11 1014.4 1014.4 0.6
23/02:30pm 10.9 8.0 6.5 74 2.1 WNW 11 15 6 8 1014.1 1014.1 0.6
23/02:00pm 9.9 6.5 7.8 87 1.0 W 15 26 8 14 1014.0 1014.0 0.6
23/01:30pm 11.7 7.0 5.3 65 2.9 WSW 19 28 10 15 1014.1 1014.1 0.0
23/01:00pm 12.2 6.8 4.7 60 3.4 W 22 32 12 17 1014.1 1014.1 0.0
23/12:30pm 10.4 5.7 6.2 75 2.0 W 20 24 11 13 1014.7 1014.7 0.0
23/12:00pm 10.3 3.3 6.1 75 1.9 SW 32 48 17 26 1014.8 1014.8 0.0
23/11:54am 10.9 4.9 5.4 69 2.5 WSW 26 48 14 26 1014.7 1014.7 0.0
23/11:30am 11.9 7.5 4.6 61 3.3 WSW 17 26 9 14 1014.8 1014.8 0.0
23/11:00am 10.7 4.4 5.5 70 2.4 SSW 28 37 15 20 1014.9 1014.9 0.0
23/10:30am 12.0 7.4 5.4 64 3.1 W 19 28 10 15 1014.8 1014.8 0.0
23/10:00am 11.1 6.9 5.6 69 2.5 WSW 17 20 9 11 1014.6 1014.6 0.0
23/09:30am 10.4 6.9 5.6 72 2.2 W 13 17 7 9 1014.2 1014.2 0.0
23/09:00am 9.1 6.0 5.5 78 1.6 WSW 11 17 6 9 1013.8 1013.8 4.0
23/08:30am 7.9 4.5 5.9 87 0.9 W 13 15 7 8 1013.4 1013.4 4.0
23/08:00am 6.2 2.6 5.0 92 0.5 W 13 17 7 9 1013.1 1013.1 4.0
23/07:30am 5.8 2.5 4.3 90 0.6 W 11 11 6 6 1012.7 1012.7 4.0
23/07:00am 7.0 3.2 5.6 91 0.6 SW 15 19 8 10 1012.4 1012.4 4.0
23/06:30am 6.3 2.7 4.9 91 0.6 W 13 15 7 8 1011.7 1011.7 4.0
23/06:00am 6.1 2.4 4.7 91 0.6 WSW 13 15 7 8 1011.2 1011.2 4.0
23/05:30am 6.6 2.7 5.2 91 0.6 WSW 15 17 8 9 1010.8 1010.8 4.0
23/05:00am 7.7 3.1 6.3 91 0.6 WSW 20 26 11 14 1010.5 1010.5 3.8
23/04:30am 5.8 2.5 4.4 91 0.6 WSW 11 13 6 7 1010.1 1010.1 3.8
23/04:00am 7.0 3.1 5.5 90 0.7 WSW 15 19 8 10 1009.8 1009.8 3.8
23/03:30am 7.3 3.5 5.9 91 0.6 W 15 20 8 11 1009.3 1009.3 3.8
23/03:00am 7.3 3.1 5.8 90 0.7 W 17 20 9 11 1009.0 1009.0 3.6
23/02:30am 7.2 3.4 5.7 90 0.7 W 15 17 8 9 1008.7 1008.7 3.6
23/02:00am 7.2 3.0 5.7 90 0.7 W 17 20 9 11 1008.4 1008.4 3.6
23/01:30am 7.3 3.5 5.9 91 0.6 W 15 19 8 10 1007.9 1007.9 3.6
23/01:00am 7.0 3.9 5.6 91 0.6 WNW 11 13 6 7 1007.7 1007.7 3.6
23/12:30am 7.8 4.0 5.9 88 0.9 WSW 15 20 8 11 1007.3 1007.3 3.6
23/12:00am 9.1 4.2 6.7 85 1.1 WSW 22 32 12 17 1007.2 1007.2 3.6
 
Date/Time
CST
Temp
°C
App
Temp
°C
Dew
Point
°C
Rel
Hum
%
Delta-T
°C
Wind Press
QNH
hPa
Press
MSL
hPa
Rain since
9am
mm
Dir  Spd
km/h
Gust
km/h
Spd
kts
Gust
kts
22/11:30pm 8.9 3.5 6.2 83 1.2 W 24 32 13 17 1006.4 1006.4 3.6
22/11:00pm 9.0 3.8 5.7 80 1.5 WSW 22 30 12 16 1005.7 1005.7 3.6
22/10:46pm 9.1 2.5 6.0 81 1.4 WSW 30 48 16 26 1005.2 1005.2 3.6
22/10:30pm 9.0 2.0 6.1 82 1.3 W 32 43 17 23 1004.6 1004.6 3.4
22/10:00pm 8.8 1.7 5.4 79 1.5 W 32 46 17 25 1003.8 1003.8 3.4
22/09:32pm 8.4 2.1 5.5 82 1.3 W 28 46 15 25 1003.4 1003.4 3.4
22/09:30pm 8.1 2.1 5.4 83 1.2 W 26 39 14 21 1003.3 1003.3 3.4
22/09:10pm 7.4 1.0 5.0 85 1.1 W 28 37 15 20 1003.3 1003.3 3.4
22/09:00pm 7.7 -1.7 5.2 84 1.1 W 44 85 24 46 1003.2 1003.2 3.4
22/08:56pm 8.1 -1.7 5.2 82 1.3 WSW 46 85 25 46 1003.4 1003.4 3.4
22/08:55pm 8.3 -1.5 5.4 82 1.3 WSW 46 85 25 46 1003.6 1003.6 3.4
22/08:52pm 9.1 0.7 5.7 79 1.5 W 39 85 21 46 1003.6 1003.6 3.2
22/08:50pm 9.8 2.7 5.4 74 2.0 W 32 74 17 40 1003.3 1003.3 3.0
22/08:49pm 10.2 3.5 5.6 73 2.1 W 30 54 16 29 1003.3 1003.3 3.0
22/08:30pm 10.4 3.2 4.8 68 2.5 W 32 46 17 25 1002.2 1002.2 2.8
22/08:00pm 9.8 2.6 5.0 72 2.2 W 32 43 17 23 1001.8 1001.8 2.8
22/07:35pm 10.2 0.8 4.4 67 2.6 W 43 61 23 33 1001.4 1001.4 2.8
22/07:30pm 10.5 1.2 4.9 68 2.5 W 43 59 23 32 1001.2 1001.2 2.8
22/07:10pm 10.7 2.8 4.6 66 2.7 W 35 57 19 31 1000.7 1000.7 2.8
22/07:00pm 9.9 3.1 4.9 71 2.2 W 30 46 16 25 1000.7 1000.7 2.8
22/06:30pm 8.6 0.0 4.6 76 1.8 W 39 61 21 33 1000.4 1000.4 2.8
22/06:07pm 9.3 0.4 5.1 75 1.9 W 41 59 22 32 1000.3 1000.3 2.8
22/06:00pm 10.1 1.0 6.1 76 1.9 W 43 56 23 30 1000.3 1000.3 2.8
22/05:38pm 10.8 4.4 5.3 69 2.5 W 28 46 15 25 999.4 999.4 2.6
22/05:30pm 10.7 4.4 5.7 71 2.3 W 28 39 15 21 999.4 999.4 2.6
22/05:17pm 10.8 3.6 6.0 72 2.2 W 33 46 18 25 999.4 999.4 2.6
22/05:00pm 11.0 2.8 6.6 74 2.1 W 39 61 21 33 999.2 999.2 2.6
22/04:37pm 12.1 5.4 7.4 73 2.3 WNW 32 63 17 34 998.4 998.4 2.4
22/04:30pm 11.8 4.9 7.3 74 2.2 W 33 46 18 25 998.6 998.6 2.4
22/04:12pm 11.8 5.0 6.7 71 2.4 WNW 32 50 17 27 998.3 998.3 2.4
22/04:00pm 11.9 5.3 8.7 81 1.6 W 33 50 18 27 998.2 998.2 2.4
22/03:43pm 11.4 3.3 7.1 75 2.1 WNW 39 67 21 36 997.8 997.8 2.4
22/03:32pm 12.4 6.5 9.2 81 1.6 WNW 30 48 16 26 997.5 997.5 2.2
22/03:30pm 12.3 6.1 9.3 82 1.5 WNW 32 44 17 24 997.6 997.6 2.2
22/03:00pm 11.3 6.5 8.7 84 1.3 WNW 24 37 13 20 997.7 997.7 2.2
22/02:41pm 10.4 0.9 8.2 86 1.1 WNW 48 76 26 41 998.4 998.4 2.0
22/02:36pm 10.3 1.0 7.7 84 1.2 WNW 46 76 25 41 998.7 998.7 2.0
22/02:33pm 10.7 1.8 7.0 78 1.8 WNW 43 76 23 41 998.6 998.6 1.8
22/02:30pm 11.7 4.1 7.6 76 2.0 WNW 37 59 20 32 998.3 998.3 1.6
22/02:21pm 11.2 4.6 8.6 84 1.3 WNW 33 54 18 29 998.4 998.4 1.6
22/02:04pm 10.9 2.3 8.1 83 1.4 W 43 65 23 35 998.3 998.3 1.2
22/02:00pm 11.8 3.4 7.5 75 2.1 WNW 41 65 22 35 998.4 998.4 0.6
22/01:37pm 15.3 8.3 10.1 71 2.7 WNW 37 56 20 30 997.7 997.7 0.6
22/01:30pm 15.6 8.0 10.4 71 2.8 WNW 41 54 22 29 997.8 997.8 0.6
22/01:15pm 15.6 8.9 9.7 68 3.1 WNW 35 56 19 30 998.0 998.0 0.6
22/01:00pm 14.7 8.5 10.1 74 2.4 WNW 33 46 18 25 998.3 998.3 0.6
22/12:30pm 12.4 6.6 9.6 83 1.4 NW 30 46 16 25 999.0 999.0 0.6
22/12:02pm 12.2 4.2 9.0 81 1.6 WNW 41 59 22 32 999.6 999.6 0.4
22/12:00pm 12.2 4.1 8.7 79 1.8 WNW 41 59 22 32 999.6 999.6 0.4
22/11:30am 15.9 10.6 9.8 67 3.2 WNW 28 46 15 25 999.6 999.6 0.2
22/11:29am 15.8 10.3 9.2 65 3.4 WNW 28 46 15 25 999.5 999.5 0.2
22/11:00am 14.2 8.9 10.0 76 2.2 NW 28 39 15 21 1000.3 1000.3 0.2
22/10:54am 13.4 8.1 9.8 79 1.8 NW 28 46 15 25 1000.4 1000.4 0.2
22/10:30am 12.7 7.4 9.7 82 1.5 WNW 28 37 15 20 1000.6 1000.6 0.2
22/10:18am 13.4 7.9 9.3 76 2.1 WNW 28 46 15 25 1000.7 1000.7 0.2
22/10:00am 14.4 9.7 9.4 72 2.6 WNW 24 35 13 19 1000.7 1000.7 0.0
22/09:30am 14.7 9.4 9.7 72 2.6 WNW 28 41 15 22 1000.9 1000.9 0.0
22/09:00am 13.7 9.2 9.9 78 2.0 WNW 24 37 13 20 1001.0 1001.0 1.2
22/08:30am 13.9 9.7 9.7 76 2.2 WNW 22 33 12 18 1001.2 1001.2 1.2
22/08:00am 14.0 10.0 10.4 79 1.9 WNW 22 33 12 18 1001.1 1001.1 1.2

Other Formats:

Comma delimited format used in spreadsheet applications
http://www.bom.gov.au/fwo/IDS60801/IDS60801.95807.axf

JavaScript Object Notation format (JSON) in row-major order
http://www.bom.gov.au/fwo/IDS60801/IDS60801.95807.json